C59 weather

Lake Lawn Airport
Delavan, Wisconsin, United States

Public forecast

Using degrees Fahrenheit for public forecast. Weather courtesy of forecast.io.

METAR (pilot weather report)

Closest report is Burlington Municipal Airport, 13.5 nm (25.0 km) ENE. Retrieved 2019/07/22 08:35 UTC (23 minutes ago):

KBUU 220835Z AUTO 03007KT 10SM BKN050 17/15 A3003 RMK AO2 T01700149

TAF (pilot weather forecast)

Closest forecast is Waukesha County Airport, 29.2 nm (54.1 km) NNE. Retrieved 2019/07/22 06:22 UTC (3 hours ago):

TAF KUES 220520Z 2206/2306 05005KT P6SM SCT060 OVC180 FM220900 04005KT P6SM BKN060 OVC150 FM221500 02009KT P6SM SCT070 SCT200 FM221800 01010G17KT P6SM SCT250 FM230100 VRB04KT P6SM FEW250